sensor_id;sensor_type;location;lat;lon;timestamp;temperature;humidity
5461;DHT22;2753;49.196;8.286;2023-09-30T00:02:15;20.60;91.70
5461;DHT22;2753;49.196;8.286;2023-09-30T00:04:41;20.60;91.60
5461;DHT22;2753;49.196;8.286;2023-09-30T00:07:07;20.60;91.60
5461;DHT22;2753;49.196;8.286;2023-09-30T00:09:33;20.60;91.70
5461;DHT22;2753;49.196;8.286;2023-09-30T00:11:59;20.50;92.00
5461;DHT22;2753;49.196;8.286;2023-09-30T00:14:25;20.40;92.10
5461;DHT22;2753;49.196;8.286;2023-09-30T00:16:51;20.40;92.10
5461;DHT22;2753;49.196;8.286;2023-09-30T00:19:17;20.40;91.90
5461;DHT22;2753;49.196;8.286;2023-09-30T00:21:42;20.40;92.00
5461;DHT22;2753;49.196;8.286;2023-09-30T00:24:08;20.40;91.80
5461;DHT22;2753;49.196;8.286;2023-09-30T00:26:34;20.40;91.80
5461;DHT22;2753;49.196;8.286;2023-09-30T00:29:00;20.40;91.80
5461;DHT22;2753;49.196;8.286;2023-09-30T00:31:29;20.40;92.10
5461;DHT22;2753;49.196;8.286;2023-09-30T00:33:55;20.30;92.10
5461;DHT22;2753;49.196;8.286;2023-09-30T00:36:21;20.30;92.00
5461;DHT22;2753;49.196;8.286;2023-09-30T00:38:50;20.30;92.10
5461;DHT22;2753;49.196;8.286;2023-09-30T00:41:15;20.30;92.20
5461;DHT22;2753;49.196;8.286;2023-09-30T00:43:41;20.20;92.30
5461;DHT22;2753;49.196;8.286;2023-09-30T00:46:35;20.20;92.20
5461;DHT22;2753;49.196;8.286;2023-09-30T00:49:03;20.10;92.30
5461;DHT22;2753;49.196;8.286;2023-09-30T00:51:29;20.10;92.30
5461;DHT22;2753;49.196;8.286;2023-09-30T00:53:58;20.10;92.20
5461;DHT22;2753;49.196;8.286;2023-09-30T00:56:26;20.10;92.10
5461;DHT22;2753;49.196;8.286;2023-09-30T00:58:53;20.10;92.00
5461;DHT22;2753;49.196;8.286;2023-09-30T01:01:20;20.10;92.00
5461;DHT22;2753;49.196;8.286;2023-09-30T01:03:46;20.00;92.10
5461;DHT22;2753;49.196;8.286;2023-09-30T01:06:13;19.90;92.10
5461;DHT22;2753;49.196;8.286;2023-09-30T01:08:39;20.00;92.10
5461;DHT22;2753;49.196;8.286;2023-09-30T01:11:05;19.90;92.00
5461;DHT22;2753;49.196;8.286;2023-09-30T01:13:37;19.80;92.00
5461;DHT22;2753;49.196;8.286;2023-09-30T01:16:10;19.80;92.00
5461;DHT22;2753;49.196;8.286;2023-09-30T01:18:36;19.80;92.10
5461;DHT22;2753;49.196;8.286;2023-09-30T01:21:06;19.70;92.00
5461;DHT22;2753;49.196;8.286;2023-09-30T01:23:33;19.70;92.10
5461;DHT22;2753;49.196;8.286;2023-09-30T01:26:10;19.70;92.10
5461;DHT22;2753;49.196;8.286;2023-09-30T01:28:38;19.70;92.00
5461;DHT22;2753;49.196;8.286;2023-09-30T01:31:04;19.70;92.00
5461;DHT22;2753;49.196;8.286;2023-09-30T01:33:31;19.70;91.90
5461;DHT22;2753;49.196;8.286;2023-09-30T01:35:57;19.70;92.00
5461;DHT22;2753;49.196;8.286;2023-09-30T01:38:23;19.70;91.90
5461;DHT22;2753;49.196;8.286;2023-09-30T01:40:49;19.70;91.90
5461;DHT22;2753;49.196;8.286;2023-09-30T01:43:17;19.70;91.80
5461;DHT22;2753;49.196;8.286;2023-09-30T01:45:43;19.70;91.90
5461;DHT22;2753;49.196;8.286;2023-09-30T01:48:10;19.60;91.80
5461;DHT22;2753;49.196;8.286;2023-09-30T01:50:39;19.70;91.70
5461;DHT22;2753;49.196;8.286;2023-09-30T01:53:06;19.70;91.70
5461;DHT22;2753;49.196;8.286;2023-09-30T01:55:38;19.70;91.60
5461;DHT22;2753;49.196;8.286;2023-09-30T01:58:04;19.70;91.50
5461;DHT22;2753;49.196;8.286;2023-09-30T02:00:30;19.70;91.50
5461;DHT22;2753;49.196;8.286;2023-09-30T02:02:56;19.70;91.50
5461;DHT22;2753;49.196;8.286;2023-09-30T02:05:22;19.70;91.50
5461;DHT22;2753;49.196;8.286;2023-09-30T02:07:52;19.70;91.80
5461;DHT22;2753;49.196;8.286;2023-09-30T02:10:18;19.70;91.40
5461;DHT22;2753;49.196;8.286;2023-09-30T02:12:45;19.70;91.40
5461;DHT22;2753;49.196;8.286;2023-09-30T02:15:11;19.70;91.50
5461;DHT22;2753;49.196;8.286;2023-09-30T02:17:37;19.70;91.60
5461;DHT22;2753;49.196;8.286;2023-09-30T02:20:03;19.60;91.70
5461;DHT22;2753;49.196;8.286;2023-09-30T02:22:41;19.60;91.50
5461;DHT22;2753;49.196;8.286;2023-09-30T02:25:07;19.60;91.50
5461;DHT22;2753;49.196;8.286;2023-09-30T02:27:33;19.70;91.60
5461;DHT22;2753;49.196;8.286;2023-09-30T02:29:59;19.60;91.60
5461;DHT22;2753;49.196;8.286;2023-09-30T02:32:25;19.60;91.80
5461;DHT22;2753;49.196;8.286;2023-09-30T02:34:51;19.50;91.90
5461;DHT22;2753;49.196;8.286;2023-09-30T02:37:17;19.40;92.00
5461;DHT22;2753;49.196;8.286;2023-09-30T02:39:43;19.40;92.10
5461;DHT22;2753;49.196;8.286;2023-09-30T02:42:10;19.40;92.10
5461;DHT22;2753;49.196;8.286;2023-09-30T02:44:36;19.40;92.10
5461;DHT22;2753;49.196;8.286;2023-09-30T02:47:01;19.40;91.90
5461;DHT22;2753;49.196;8.286;2023-09-30T02:49:32;19.40;92.10
5461;DHT22;2753;49.196;8.286;2023-09-30T02:51:58;19.40;92.30
5461;DHT22;2753;49.196;8.286;2023-09-30T02:54:24;19.40;92.10
5461;DHT22;2753;49.196;8.286;2023-09-30T02:56:49;19.40;92.00
5461;DHT22;2753;49.196;8.286;2023-09-30T02:59:15;19.50;92.10
5461;DHT22;2753;49.196;8.286;2023-09-30T03:01:42;19.40;92.30
5461;DHT22;2753;49.196;8.286;2023-09-30T03:04:10;19.40;92.20
5461;DHT22;2753;49.196;8.286;2023-09-30T03:06:38;19.30;92.20
5461;DHT22;2753;49.196;8.286;2023-09-30T03:09:04;19.40;92.20
5461;DHT22;2753;49.196;8.286;2023-09-30T03:11:31;19.30;92.50
5461;DHT22;2753;49.196;8.286;2023-09-30T03:13:57;19.30;92.70
5461;DHT22;2753;49.196;8.286;2023-09-30T03:16:23;19.20;92.60
5461;DHT22;2753;49.196;8.286;2023-09-30T03:18:50;19.20;92.50
5461;DHT22;2753;49.196;8.286;2023-09-30T03:21:16;19.20;92.40
5461;DHT22;2753;49.196;8.286;2023-09-30T03:23:42;19.20;92.30
5461;DHT22;2753;49.196;8.286;2023-09-30T03:26:09;19.20;93.00
5461;DHT22;2753;49.196;8.286;2023-09-30T03:28:39;19.20;92.40
5461;DHT22;2753;49.196;8.286;2023-09-30T03:31:05;19.20;92.40
5461;DHT22;2753;49.196;8.286;2023-09-30T03:33:35;19.20;92.30
5461;DHT22;2753;49.196;8.286;2023-09-30T03:36:01;19.20;92.30
5461;DHT22;2753;49.196;8.286;2023-09-30T03:38:29;19.30;92.20
5461;DHT22;2753;49.196;8.286;2023-09-30T03:40:54;19.20;92.60
5461;DHT22;2753;49.196;8.286;2023-09-30T03:43:23;19.20;92.50
5461;DHT22;2753;49.196;8.286;2023-09-30T03:45:49;19.10;92.50
5461;DHT22;2753;49.196;8.286;2023-09-30T03:48:15;19.00;92.90
5461;DHT22;2753;49.196;8.286;2023-09-30T03:50:42;19.00;93.00
5461;DHT22;2753;49.196;8.286;2023-09-30T03:53:08;18.90;93.10
5461;DHT22;2753;49.196;8.286;2023-09-30T03:55:34;18.90;93.00
5461;DHT22;2753;49.196;8.286;2023-09-30T03:58:00;18.90;93.00
5461;DHT22;2753;49.196;8.286;2023-09-30T04:00:26;18.90;92.90
5461;DHT22;2753;49.196;8.286;2023-09-30T04:02:54;18.90;92.90
5461;DHT22;2753;49.196;8.286;2023-09-30T04:05:23;18.90;92.90
5461;DHT22;2753;49.196;8.286;2023-09-30T04:07:57;18.90;92.90
5461;DHT22;2753;49.196;8.286;2023-09-30T04:10:22;18.80;92.90
5461;DHT22;2753;49.196;8.286;2023-09-30T04:12:48;18.80;92.70
5461;DHT22;2753;49.196;8.286;2023-09-30T04:15:14;18.80;92.80
5461;DHT22;2753;49.196;8.286;2023-09-30T04:17:41;18.80;92.70
5461;DHT22;2753;49.196;8.286;2023-09-30T04:20:08;18.80;92.70
5461;DHT22;2753;49.196;8.286;2023-09-30T04:22:37;18.80;92.50
5461;DHT22;2753;49.196;8.286;2023-09-30T04:25:04;18.80;92.50
5461;DHT22;2753;49.196;8.286;2023-09-30T04:27:37;18.80;92.70
5461;DHT22;2753;49.196;8.286;2023-09-30T04:30:03;18.60;92.90
5461;DHT22;2753;49.196;8.286;2023-09-30T04:32:35;18.50;93.00
5461;DHT22;2753;49.196;8.286;2023-09-30T04:35:03;18.50;92.90
5461;DHT22;2753;49.196;8.286;2023-09-30T04:37:29;18.60;92.90
5461;DHT22;2753;49.196;8.286;2023-09-30T04:39:55;18.60;92.70
5461;DHT22;2753;49.196;8.286;2023-09-30T04:42:20;18.50;92.90
5461;DHT22;2753;49.196;8.286;2023-09-30T04:44:46;18.50;92.90
5461;DHT22;2753;49.196;8.286;2023-09-30T04:47:12;18.50;92.60
5461;DHT22;2753;49.196;8.286;2023-09-30T04:49:37;18.40;92.80
5461;DHT22;2753;49.196;8.286;2023-09-30T04:52:03;18.40;92.90
5461;DHT22;2753;49.196;8.286;2023-09-30T04:54:35;18.40;92.80
5461;DHT22;2753;49.196;8.286;2023-09-30T04:57:01;18.40;92.70
5461;DHT22;2753;49.196;8.286;2023-09-30T04:59:28;18.40;92.60
5461;DHT22;2753;49.196;8.286;2023-09-30T05:01:55;18.40;92.60
5461;DHT22;2753;49.196;8.286;2023-09-30T05:04:21;18.40;92.50
5461;DHT22;2753;49.196;8.286;2023-09-30T05:06:49;18.30;92.80
5461;DHT22;2753;49.196;8.286;2023-09-30T05:09:15;18.20;93.00
5461;DHT22;2753;49.196;8.286;2023-09-30T05:11:40;18.10;92.90
5461;DHT22;2753;49.196;8.286;2023-09-30T05:14:06;18.10;92.90
5461;DHT22;2753;49.196;8.286;2023-09-30T05:16:32;18.00;93.00
5461;DHT22;2753;49.196;8.286;2023-09-30T05:18:58;18.10;92.90
5461;DHT22;2753;49.196;8.286;2023-09-30T05:21:24;18.10;92.70
5461;DHT22;2753;49.196;8.286;2023-09-30T05:23:50;18.10;92.60
5461;DHT22;2753;49.196;8.286;2023-09-30T05:26:17;18.10;92.60
5461;DHT22;2753;49.196;8.286;2023-09-30T05:28:43;18.10;92.70
5461;DHT22;2753;49.196;8.286;2023-09-30T05:31:09;18.10;92.70
5461;DHT22;2753;49.196;8.286;2023-09-30T05:33:34;18.10;92.70
5461;DHT22;2753;49.196;8.286;2023-09-30T05:36:01;18.00;92.90
5461;DHT22;2753;49.196;8.286;2023-09-30T05:38:28;18.00;92.70
5461;DHT22;2753;49.196;8.286;2023-09-30T05:40:56;18.00;92.70
5461;DHT22;2753;49.196;8.286;2023-09-30T05:43:24;17.90;92.60
5461;DHT22;2753;49.196;8.286;2023-09-30T05:45:50;17.90;93.00
5461;DHT22;2753;49.196;8.286;2023-09-30T05:48:20;17.90;92.90
5461;DHT22;2753;49.196;8.286;2023-09-30T05:50:46;17.90;92.90
5461;DHT22;2753;49.196;8.286;2023-09-30T05:53:13;17.80;92.90
5461;DHT22;2753;49.196;8.286;2023-09-30T05:55:39;17.90;92.90
5461;DHT22;2753;49.196;8.286;2023-09-30T05:58:09;17.90;93.00
5461;DHT22;2753;49.196;8.286;2023-09-30T06:00:35;17.80;92.90
5461;DHT22;2753;49.196;8.286;2023-09-30T06:03:01;17.90;93.10
5461;DHT22;2753;49.196;8.286;2023-09-30T06:05:28;17.90;92.90
5461;DHT22;2753;49.196;8.286;2023-09-30T06:07:56;17.90;93.00
5461;DHT22;2753;49.196;8.286;2023-09-30T06:10:22;17.90;93.10
5461;DHT22;2753;49.196;8.286;2023-09-30T06:12:49;17.90;93.20
5461;DHT22;2753;49.196;8.286;2023-09-30T06:15:16;17.90;93.30
5461;DHT22;2753;49.196;8.286;2023-09-30T06:17:43;17.80;93.30
5461;DHT22;2753;49.196;8.286;2023-09-30T06:20:10;17.80;93.20
5461;DHT22;2753;49.196;8.286;2023-09-30T06:22:42;17.80;93.50
5461;DHT22;2753;49.196;8.286;2023-09-30T06:25:09;17.80;93.60
5461;DHT22;2753;49.196;8.286;2023-09-30T06:27:35;17.90;93.60
5461;DHT22;2753;49.196;8.286;2023-09-30T06:30:01;18.00;93.60
5461;DHT22;2753;49.196;8.286;2023-09-30T06:32:26;18.00;93.40
5461;DHT22;2753;49.196;8.286;2023-09-30T06:34:52;18.10;93.20
5461;DHT22;2753;49.196;8.286;2023-09-30T06:37:18;18.10;93.10
5461;DHT22;2753;49.196;8.286;2023-09-30T06:39:45;18.00;93.20
5461;DHT22;2753;49.196;8.286;2023-09-30T06:42:10;18.00;93.30
5461;DHT22;2753;49.196;8.286;2023-09-30T06:44:36;17.90;93.30
5461;DHT22;2753;49.196;8.286;2023-09-30T06:47:05;18.00;93.40
5461;DHT22;2753;49.196;8.286;2023-09-30T06:49:34;18.00;93.30
5461;DHT22;2753;49.196;8.286;2023-09-30T06:51:59;18.00;93.40
5461;DHT22;2753;49.196;8.286;2023-09-30T06:54:25;18.00;93.10
5461;DHT22;2753;49.196;8.286;2023-09-30T06:56:51;18.10;93.10
5461;DHT22;2753;49.196;8.286;2023-09-30T06:59:16;18.20;92.90
5461;DHT22;2753;49.196;8.286;2023-09-30T07:01:42;18.20;92.90
5461;DHT22;2753;49.196;8.286;2023-09-30T07:04:09;18.20;92.70
5461;DHT22;2753;49.196;8.286;2023-09-30T07:06:37;18.30;92.90
5461;DHT22;2753;49.196;8.286;2023-09-30T07:09:03;18.30;92.80
5461;DHT22;2753;49.196;8.286;2023-09-30T07:11:30;18.30;92.90
5461;DHT22;2753;49.196;8.286;2023-09-30T07:13:59;18.30;92.90
5461;DHT22;2753;49.196;8.286;2023-09-30T07:16:25;18.30;92.80
5461;DHT22;2753;49.196;8.286;2023-09-30T07:18:51;18.40;92.80
5461;DHT22;2753;49.196;8.286;2023-09-30T07:21:17;18.40;92.80
5461;DHT22;2753;49.196;8.286;2023-09-30T07:23:42;18.40;92.70
5461;DHT22;2753;49.196;8.286;2023-09-30T07:26:08;18.50;92.60
5461;DHT22;2753;49.196;8.286;2023-09-30T07:28:34;18.50;92.60
5461;DHT22;2753;49.196;8.286;2023-09-30T07:31:00;18.60;92.50
5461;DHT22;2753;49.196;8.286;2023-09-30T07:33:25;18.60;92.60
5461;DHT22;2753;49.196;8.286;2023-09-30T07:35:51;18.70;92.70
5461;DHT22;2753;49.196;8.286;2023-09-30T07:38:17;18.70;92.50
5461;DHT22;2753;49.196;8.286;2023-09-30T07:40:43;18.80;92.50
5461;DHT22;2753;49.196;8.286;2023-09-30T07:43:09;18.80;92.40
5461;DHT22;2753;49.196;8.286;2023-09-30T07:45:34;18.90;92.30
5461;DHT22;2753;49.196;8.286;2023-09-30T07:48:00;18.90;92.20
5461;DHT22;2753;49.196;8.286;2023-09-30T07:50:30;19.10;92.10
5461;DHT22;2753;49.196;8.286;2023-09-30T07:52:56;19.10;92.00
5461;DHT22;2753;49.196;8.286;2023-09-30T07:55:21;19.20;91.80
5461;DHT22;2753;49.196;8.286;2023-09-30T07:57:48;19.20;91.70
5461;DHT22;2753;49.196;8.286;2023-09-30T08:00:13;19.30;91.80
5461;DHT22;2753;49.196;8.286;2023-09-30T08:02:43;19.30;91.50
5461;DHT22;2753;49.196;8.286;2023-09-30T08:05:09;19.30;91.00
5461;DHT22;2753;49.196;8.286;2023-09-30T08:07:36;19.40;91.00
5461;DHT22;2753;49.196;8.286;2023-09-30T08:29:28;19.90;90.70
5461;DHT22;2753;49.196;8.286;2023-09-30T08:31:53;20.00;90.80
5461;DHT22;2753;49.196;8.286;2023-09-30T08:34:19;20.00;90.80
5461;DHT22;2753;49.196;8.286;2023-09-30T08:36:46;20.10;90.50
5461;DHT22;2753;49.196;8.286;2023-09-30T08:39:12;20.10;90.50
5461;DHT22;2753;49.196;8.286;2023-09-30T08:41:41;20.20;90.40
5461;DHT22;2753;49.196;8.286;2023-09-30T08:44:09;20.30;90.40
5461;DHT22;2753;49.196;8.286;2023-09-30T08:46:35;20.30;90.40
5461;DHT22;2753;49.196;8.286;2023-09-30T08:49:03;20.40;90.40
5461;DHT22;2753;49.196;8.286;2023-09-30T08:51:30;20.50;90.50
5461;DHT22;2753;49.196;8.286;2023-09-30T08:53:57;20.50;90.30
5461;DHT22;2753;49.196;8.286;2023-09-30T08:56:28;20.60;90.30
5461;DHT22;2753;49.196;8.286;2023-09-30T08:58:57;20.70;90.40
5461;DHT22;2753;49.196;8.286;2023-09-30T09:01:24;20.70;90.30
5461;DHT22;2753;49.196;8.286;2023-09-30T09:03:51;20.70;90.00
5461;DHT22;2753;49.196;8.286;2023-09-30T09:06:22;20.70;89.70
5461;DHT22;2753;49.196;8.286;2023-09-30T09:08:48;20.70;90.00
5461;DHT22;2753;49.196;8.286;2023-09-30T09:11:14;20.80;90.00
5461;DHT22;2753;49.196;8.286;2023-09-30T09:13:47;20.90;90.10
5461;DHT22;2753;49.196;8.286;2023-09-30T09:16:16;20.90;89.50
5461;DHT22;2753;49.196;8.286;2023-09-30T09:18:43;21.00;89.20
5461;DHT22;2753;49.196;8.286;2023-09-30T09:21:09;21.10;89.10
5461;DHT22;2753;49.196;8.286;2023-09-30T09:23:42;21.00;88.40
5461;DHT22;2753;49.196;8.286;2023-09-30T09:26:09;21.00;88.50
5461;DHT22;2753;49.196;8.286;2023-09-30T09:28:36;21.20;89.30
5461;DHT22;2753;49.196;8.286;2023-09-30T09:31:19;21.40;89.20
5461;DHT22;2753;49.196;8.286;2023-09-30T09:33:53;21.60;88.70
5461;DHT22;2753;49.196;8.286;2023-09-30T09:36:19;21.70;87.90
5461;DHT22;2753;49.196;8.286;2023-09-30T09:38:49;21.80;87.80
5461;DHT22;2753;49.196;8.286;2023-09-30T09:41:18;21.90;87.60
5461;DHT22;2753;49.196;8.286;2023-09-30T09:43:44;22.00;86.70
5461;DHT22;2753;49.196;8.286;2023-09-30T09:46:10;21.90;86.60
5461;DHT22;2753;49.196;8.286;2023-09-30T09:48:37;22.00;87.60
5461;DHT22;2753;49.196;8.286;2023-09-30T09:51:06;22.20;87.10
5461;DHT22;2753;49.196;8.286;2023-09-30T09:53:35;22.30;86.50
5461;DHT22;2753;49.196;8.286;2023-09-30T09:56:04;22.50;86.10
5461;DHT22;2753;49.196;8.286;2023-09-30T09:58:36;22.60;86.00
5461;DHT22;2753;49.196;8.286;2023-09-30T10:01:07;22.70;84.50
5461;DHT22;2753;49.196;8.286;2023-09-30T10:03:34;22.90;85.70
5461;DHT22;2753;49.196;8.286;2023-09-30T10:06:00;23.10;84.40
5461;DHT22;2753;49.196;8.286;2023-09-30T10:08:33;23.00;83.40
5461;DHT22;2753;49.196;8.286;2023-09-30T10:11:01;23.20;83.90
5461;DHT22;2753;49.196;8.286;2023-09-30T10:16:50;23.30;82.90
5461;DHT22;2753;49.196;8.286;2023-09-30T10:19:19;23.40;82.90
5461;DHT22;2753;49.196;8.286;2023-09-30T10:24:46;23.70;82.20
5461;DHT22;2753;49.196;8.286;2023-09-30T10:35:20;24.10;81.10
5461;DHT22;2753;49.196;8.286;2023-09-30T10:37:47;24.40;81.80
5461;DHT22;2753;49.196;8.286;2023-09-30T10:40:29;24.70;80.90
5461;DHT22;2753;49.196;8.286;2023-09-30T10:42:56;24.60;79.40
5461;DHT22;2753;49.196;8.286;2023-09-30T10:50:56;24.50;80.30
5461;DHT22;2753;49.196;8.286;2023-09-30T10:53:24;24.30;80.20
5461;DHT22;2753;49.196;8.286;2023-09-30T10:56:00;24.60;79.50
5461;DHT22;2753;49.196;8.286;2023-09-30T10:58:45;24.70;79.70
5461;DHT22;2753;49.196;8.286;2023-09-30T11:01:13;24.50;77.80
5461;DHT22;2753;49.196;8.286;2023-09-30T11:03:43;24.10;79.30
5461;DHT22;2753;49.196;8.286;2023-09-30T11:06:16;23.80;79.60
5461;DHT22;2753;49.196;8.286;2023-09-30T11:08:47;23.40;80.00
5461;DHT22;2753;49.196;8.286;2023-09-30T11:11:16;23.70;81.50
5461;DHT22;2753;49.196;8.286;2023-09-30T11:13:41;24.20;80.10
5461;DHT22;2753;49.196;8.286;2023-09-30T11:16:07;24.70;80.40
5461;DHT22;2753;49.196;8.286;2023-09-30T11:18:34;24.80;78.60
5461;DHT22;2753;49.196;8.286;2023-09-30T11:21:04;25.10;78.70
5461;DHT22;2753;49.196;8.286;2023-09-30T11:26:06;25.80;76.60
5461;DHT22;2753;49.196;8.286;2023-09-30T11:28:36;25.70;75.40
5461;DHT22;2753;49.196;8.286;2023-09-30T11:38:50;25.50;75.70
5461;DHT22;2753;49.196;8.286;2023-09-30T11:49:04;25.80;74.20
5461;DHT22;2753;49.196;8.286;2023-09-30T11:51:43;25.70;74.20
5461;DHT22;2753;49.196;8.286;2023-09-30T11:54:14;25.70;75.30
5461;DHT22;2753;49.196;8.286;2023-09-30T11:59:18;26.10;74.50
5461;DHT22;2753;49.196;8.286;2023-09-30T12:01:45;26.40;73.10
5461;DHT22;2753;49.196;8.286;2023-09-30T12:04:14;26.60;71.10
5461;DHT22;2753;49.196;8.286;2023-09-30T12:06:43;26.80;72.00
5461;DHT22;2753;49.196;8.286;2023-09-30T12:09:08;27.10;70.70
5461;DHT22;2753;49.196;8.286;2023-09-30T12:11:43;27.40;70.50
5461;DHT22;2753;49.196;8.286;2023-09-30T12:14:12;27.60;69.60
5461;DHT22;2753;49.196;8.286;2023-09-30T12:16:39;27.60;68.80
5461;DHT22;2753;49.196;8.286;2023-09-30T12:19:05;27.40;70.40
5461;DHT22;2753;49.196;8.286;2023-09-30T12:21:34;27.70;69.00
5461;DHT22;2753;49.196;8.286;2023-09-30T12:24:01;27.80;67.80
5461;DHT22;2753;49.196;8.286;2023-09-30T12:26:28;27.80;68.70
5461;DHT22;2753;49.196;8.286;2023-09-30T12:28:55;28.00;69.50
5461;DHT22;2753;49.196;8.286;2023-09-30T12:31:22;27.90;69.00
5461;DHT22;2753;49.196;8.286;2023-09-30T12:33:48;28.40;69.00
5461;DHT22;2753;49.196;8.286;2023-09-30T12:36:21;28.10;67.80
5461;DHT22;2753;49.196;8.286;2023-09-30T12:38:54;28.30;66.40
5461;DHT22;2753;49.196;8.286;2023-09-30T12:41:20;28.60;66.30
5461;DHT22;2753;49.196;8.286;2023-09-30T12:43:46;28.70;65.30
5461;DHT22;2753;49.196;8.286;2023-09-30T12:46:12;28.60;65.60
5461;DHT22;2753;49.196;8.286;2023-09-30T12:48:39;28.30;66.40
5461;DHT22;2753;49.196;8.286;2023-09-30T12:51:05;28.20;66.20
5461;DHT22;2753;49.196;8.286;2023-09-30T12:53:33;28.60;64.40
5461;DHT22;2753;49.196;8.286;2023-09-30T12:56:00;28.80;65.30
5461;DHT22;2753;49.196;8.286;2023-09-30T12:58:26;28.00;63.40
5461;DHT22;2753;49.196;8.286;2023-09-30T13:00:55;27.80;64.60
5461;DHT22;2753;49.196;8.286;2023-09-30T13:03:20;27.50;66.10
5461;DHT22;2753;49.196;8.286;2023-09-30T13:05:46;27.50;66.50
5461;DHT22;2753;49.196;8.286;2023-09-30T13:08:11;27.30;66.50
5461;DHT22;2753;49.196;8.286;2023-09-30T13:10:37;27.00;66.70
5461;DHT22;2753;49.196;8.286;2023-09-30T13:13:04;27.00;67.70
5461;DHT22;2753;49.196;8.286;2023-09-30T13:15:29;26.90;67.20
5461;DHT22;2753;49.196;8.286;2023-09-30T13:17:55;26.90;67.70
5461;DHT22;2753;49.196;8.286;2023-09-30T13:20:21;26.80;67.50
5461;DHT22;2753;49.196;8.286;2023-09-30T13:22:46;26.70;68.30
5461;DHT22;2753;49.196;8.286;2023-09-30T13:25:13;26.70;68.10
5461;DHT22;2753;49.196;8.286;2023-09-30T13:27:39;26.80;66.80
5461;DHT22;2753;49.196;8.286;2023-09-30T13:30:07;26.60;68.40
5461;DHT22;2753;49.196;8.286;2023-09-30T13:32:33;26.10;69.70
5461;DHT22;2753;49.196;8.286;2023-09-30T13:35:06;26.10;69.80
5461;DHT22;2753;49.196;8.286;2023-09-30T13:37:32;26.40;69.00
5461;DHT22;2753;49.196;8.286;2023-09-30T13:40:03;25.90;69.30
5461;DHT22;2753;49.196;8.286;2023-09-30T13:42:34;25.90;70.00
5461;DHT22;2753;49.196;8.286;2023-09-30T13:45:01;26.50;69.50
5461;DHT22;2753;49.196;8.286;2023-09-30T13:47:27;26.40;68.70
5461;DHT22;2753;49.196;8.286;2023-09-30T13:49:53;26.40;68.30
5461;DHT22;2753;49.196;8.286;2023-09-30T13:52:21;26.80;68.30
5461;DHT22;2753;49.196;8.286;2023-09-30T13:54:47;26.70;67.70
5461;DHT22;2753;49.196;8.286;2023-09-30T13:57:13;26.60;68.70
5461;DHT22;2753;49.196;8.286;2023-09-30T13:59:39;26.40;69.10
5461;DHT22;2753;49.196;8.286;2023-09-30T14:02:07;26.10;69.50
5461;DHT22;2753;49.196;8.286;2023-09-30T14:04:33;25.90;70.60
5461;DHT22;2753;49.196;8.286;2023-09-30T14:07:02;26.00;70.30
5461;DHT22;2753;49.196;8.286;2023-09-30T14:09:29;26.10;70.10
5461;DHT22;2753;49.196;8.286;2023-09-30T14:11:55;25.90;69.80
5461;DHT22;2753;49.196;8.286;2023-09-30T14:14:21;26.10;69.80
5461;DHT22;2753;49.196;8.286;2023-09-30T14:16:47;26.10;69.30
5461;DHT22;2753;49.196;8.286;2023-09-30T14:19:13;25.90;69.60
5461;DHT22;2753;49.196;8.286;2023-09-30T14:21:40;26.00;69.70
5461;DHT22;2753;49.196;8.286;2023-09-30T14:24:06;26.10;69.00
5461;DHT22;2753;49.196;8.286;2023-09-30T14:26:32;25.80;69.80
5461;DHT22;2753;49.196;8.286;2023-09-30T14:28:59;26.00;69.90
5461;DHT22;2753;49.196;8.286;2023-09-30T14:31:24;25.90;69.70
5461;DHT22;2753;49.196;8.286;2023-09-30T14:33:50;25.60;70.00
5461;DHT22;2753;49.196;8.286;2023-09-30T14:36:19;25.40;71.30
5461;DHT22;2753;49.196;8.286;2023-09-30T14:38:45;25.10;70.50
5461;DHT22;2753;49.196;8.286;2023-09-30T14:41:12;25.20;71.20
5461;DHT22;2753;49.196;8.286;2023-09-30T14:43:38;25.40;71.00
5461;DHT22;2753;49.196;8.286;2023-09-30T14:46:04;25.60;70.40
5461;DHT22;2753;49.196;8.286;2023-09-30T14:48:31;25.80;70.40
5461;DHT22;2753;49.196;8.286;2023-09-30T14:50:57;26.20;69.20
5461;DHT22;2753;49.196;8.286;2023-09-30T14:53:23;26.10;68.50
5461;DHT22;2753;49.196;8.286;2023-09-30T14:55:50;26.40;69.30
5461;DHT22;2753;49.196;8.286;2023-09-30T14:58:16;26.20;69.10
5461;DHT22;2753;49.196;8.286;2023-09-30T15:00:42;26.30;69.60
5461;DHT22;2753;49.196;8.286;2023-09-30T15:03:08;26.60;69.10
5461;DHT22;2753;49.196;8.286;2023-09-30T15:05:33;26.70;68.60
5461;DHT22;2753;49.196;8.286;2023-09-30T15:08:00;26.70;68.80
5461;DHT22;2753;49.196;8.286;2023-09-30T15:10:28;26.50;68.30
5461;DHT22;2753;49.196;8.286;2023-09-30T15:12:54;26.40;68.30
5461;DHT22;2753;49.196;8.286;2023-09-30T15:15:20;25.90;67.90
5461;DHT22;2753;49.196;8.286;2023-09-30T15:17:45;25.70;69.40
5461;DHT22;2753;49.196;8.286;2023-09-30T15:20:12;25.90;69.30
5461;DHT22;2753;49.196;8.286;2023-09-30T15:22:38;26.00;69.50
5461;DHT22;2753;49.196;8.286;2023-09-30T15:25:04;26.00;69.20
5461;DHT22;2753;49.196;8.286;2023-09-30T15:27:31;25.70;69.50
5461;DHT22;2753;49.196;8.286;2023-09-30T15:30:02;25.70;69.60
5461;DHT22;2753;49.196;8.286;2023-09-30T15:32:28;25.40;69.60
5461;DHT22;2753;49.196;8.286;2023-09-30T15:34:54;25.30;70.20
5461;DHT22;2753;49.196;8.286;2023-09-30T15:37:21;25.50;70.20
5461;DHT22;2753;49.196;8.286;2023-09-30T15:39:46;25.50;70.00
5461;DHT22;2753;49.196;8.286;2023-09-30T15:42:12;25.20;70.10
5461;DHT22;2753;49.196;8.286;2023-09-30T15:44:38;25.20;70.20
5461;DHT22;2753;49.196;8.286;2023-09-30T15:47:08;25.10;70.90
5461;DHT22;2753;49.196;8.286;2023-09-30T15:49:34;25.20;71.00
5461;DHT22;2753;49.196;8.286;2023-09-30T15:52:00;25.30;70.60
5461;DHT22;2753;49.196;8.286;2023-09-30T15:54:26;25.10;70.90
5461;DHT22;2753;49.196;8.286;2023-09-30T15:56:52;25.00;71.20
5461;DHT22;2753;49.196;8.286;2023-09-30T15:59:17;24.90;71.30
5461;DHT22;2753;49.196;8.286;2023-09-30T16:01:44;24.80;71.80
5461;DHT22;2753;49.196;8.286;2023-09-30T16:04:10;24.60;72.30
5461;DHT22;2753;49.196;8.286;2023-09-30T16:06:39;24.50;72.70
5461;DHT22;2753;49.196;8.286;2023-09-30T16:09:05;24.40;73.10
5461;DHT22;2753;49.196;8.286;2023-09-30T16:11:30;24.30;73.20
5461;DHT22;2753;49.196;8.286;2023-09-30T16:13:57;24.30;73.20
5461;DHT22;2753;49.196;8.286;2023-09-30T16:16:22;24.30;73.20
5461;DHT22;2753;49.196;8.286;2023-09-30T16:18:48;24.10;73.40
5461;DHT22;2753;49.196;8.286;2023-09-30T16:21:14;24.10;73.50
5461;DHT22;2753;49.196;8.286;2023-09-30T16:23:39;24.00;73.60
5461;DHT22;2753;49.196;8.286;2023-09-30T16:26:05;23.90;73.50
5461;DHT22;2753;49.196;8.286;2023-09-30T16:28:31;23.80;73.90
5461;DHT22;2753;49.196;8.286;2023-09-30T16:31:00;23.80;74.20
5461;DHT22;2753;49.196;8.286;2023-09-30T16:33:26;23.80;74.30
5461;DHT22;2753;49.196;8.286;2023-09-30T16:35:52;23.80;74.50
5461;DHT22;2753;49.196;8.286;2023-09-30T16:38:19;23.70;74.20
5461;DHT22;2753;49.196;8.286;2023-09-30T16:40:49;23.60;74.50
5461;DHT22;2753;49.196;8.286;2023-09-30T16:43:15;23.60;74.70
5461;DHT22;2753;49.196;8.286;2023-09-30T16:45:41;23.60;75.10
5461;DHT22;2753;49.196;8.286;2023-09-30T16:48:07;23.50;75.10
5461;DHT22;2753;49.196;8.286;2023-09-30T16:50:44;23.40;76.20
5461;DHT22;2753;49.196;8.286;2023-09-30T16:53:11;23.30;75.40
5461;DHT22;2753;49.196;8.286;2023-09-30T16:55:37;23.30;75.30
5461;DHT22;2753;49.196;8.286;2023-09-30T16:58:04;23.30;75.30
5461;DHT22;2753;49.196;8.286;2023-09-30T17:00:30;23.30;75.70
5461;DHT22;2753;49.196;8.286;2023-09-30T17:02:57;23.30;75.70